Time;durP1;ratioP1;P1;durP2;ratioP2;P2;SDS_P1;SDS_P2;PMS_P1;PMS_P2;Temp;Humidity;BMP_temperature;BMP_pressure;BME280_temperature;BME280_humidity;BME280_pressure;Samples;Min_cycle;Max_cycle;Signal;HPM_P1;HPM_P2
2022/07/17 00:00:19;;;;;;;3.13;1.60;;;19.00;91.10;;;;;;5054579;28;20037;-74
2022/07/17 00:02:47;;;;;;;3.42;1.70;;;18.90;91.40;;;;;;5036595;28;20091;-74
2022/07/17 00:05:15;;;;;;;4.18;1.65;;;18.90;91.40;;;;;;5053304;28;20384;-75
2022/07/17 00:07:42;;;;;;;2.00;1.23;;;18.90;91.50;;;;;;5053080;28;20415;-75
2022/07/17 00:10:09;;;;;;;2.58;1.30;;;18.90;91.50;;;;;;5053681;28;20045;-74
2022/07/17 00:12:36;;;;;;;3.80;1.63;;;18.80;91.60;;;;;;5052785;28;20052;-74
2022/07/17 00:15:03;;;;;;;2.67;1.50;;;18.80;91.60;;;;;;5054691;28;20045;-74
2022/07/17 00:17:30;;;;;;;3.20;1.40;;;18.80;91.80;;;;;;5052658;28;20090;-75
2022/07/17 00:19:57;;;;;;;2.25;1.55;;;18.80;92.00;;;;;;5054184;28;20073;-74
2022/07/17 00:22:24;;;;;;;3.88;1.67;;;18.70;92.30;;;;;;5052497;28;20052;-74
2022/07/17 00:24:52;;;;;;;2.78;1.40;;;18.70;92.40;;;;;;5054521;28;20053;-74
2022/07/17 00:27:18;;;;;;;3.63;1.70;;;18.60;92.60;;;;;;5054051;28;20087;-74
2022/07/17 00:29:45;;;;;;;3.35;1.27;;;18.60;92.90;;;;;;5053907;28;20049;-74
2022/07/17 00:32:12;;;;;;;2.05;1.33;;;18.60;93.30;;;;;;5052647;28;20049;-74
2022/07/17 00:34:39;;;;;;;2.05;1.67;;;18.50;93.30;;;;;;5053443;28;20045;-74
2022/07/17 00:37:06;;;;;;;2.58;1.38;;;18.50;93.40;;;;;;5052269;28;20071;-74
2022/07/17 00:39:34;;;;;;;2.40;1.52;;;18.40;93.40;;;;;;5052315;28;20037;-75
2022/07/17 00:42:01;;;;;;;3.28;1.20;;;18.40;93.80;;;;;;5051832;28;20373;-75
2022/07/17 00:44:28;;;;;;;2.58;1.60;;;18.30;93.90;;;;;;5053393;28;20040;-75
2022/07/17 00:46:55;;;;;;;2.55;1.60;;;18.30;93.90;;;;;;5053374;28;20044;-75
2022/07/17 00:49:22;;;;;;;2.40;1.73;;;18.20;94.50;;;;;;5053464;28;20072;-75
2022/07/17 00:51:49;;;;;;;2.40;1.40;;;18.20;94.60;;;;;;5052906;28;20056;-75
2022/07/17 00:54:17;;;;;;;2.38;1.48;;;18.10;94.80;;;;;;5053467;28;20378;-75
2022/07/17 00:56:45;;;;;;;;;;;18.10;94.80;;;;;;5052691;28;20041;-75
2022/07/17 00:59:12;;;;;;;2.28;1.40;;;18.10;95.80;;;;;;5085549;28;19917;-75
2022/07/17 01:01:39;;;;;;;2.85;1.30;;;18.00;95.30;;;;;;5052228;28;20044;-75
2022/07/17 01:04:06;;;;;;;2.75;1.50;;;18.10;95.20;;;;;;5052163;28;20122;-75
2022/07/17 01:06:33;;;;;;;4.15;1.92;;;18.00;95.50;;;;;;5052199;28;20049;-76
2022/07/17 01:09:00;;;;;;;2.92;1.70;;;18.00;95.70;;;;;;5051734;28;20047;-75
2022/07/17 01:11:27;;;;;;;3.90;1.60;;;17.90;96.10;;;;;;5051753;28;20435;-75
2022/07/17 01:13:54;;;;;;;2.85;1.60;;;17.90;96.50;;;;;;5051690;28;20044;-75
2022/07/17 01:16:22;;;;;;;2.88;1.70;;;17.80;96.80;;;;;;5052051;28;20052;-75
2022/07/17 01:18:48;;;;;;;3.72;1.83;;;17.80;97.10;;;;;;5052042;28;20124;-75
2022/07/17 01:21:15;;;;;;;2.75;1.70;;;17.70;97.60;;;;;;5051729;28;20123;-75
2022/07/17 01:23:43;;;;;;;2.63;1.63;;;17.70;97.90;;;;;;5053009;28;20048;-75
2022/07/17 01:26:10;;;;;;;3.95;1.80;;;17.60;98.00;;;;;;5052885;28;20160;-76
2022/07/17 01:28:36;;;;;;;3.33;1.70;;;17.60;98.50;;;;;;5052053;28;20041;-75
2022/07/17 01:31:04;;;;;;;2.60;1.90;;;17.50;99.10;;;;;;5051687;28;20135;-75
2022/07/17 01:33:31;;;;;;;4.95;1.70;;;17.50;99.30;;;;;;5053022;28;20048;-75
2022/07/17 01:35:58;;;;;;;3.17;1.80;;;17.40;99.90;;;;;;5052805;28;20075;-75
2022/07/17 01:38:25;;;;;;;3.25;2.10;;;17.30;99.90;;;;;;5051806;28;20056;-75
2022/07/17 01:40:52;;;;;;;4.78;2.45;;;17.30;99.90;;;;;;5052763;28;20473;-75
2022/07/17 01:43:19;;;;;;;3.53;1.77;;;17.30;99.90;;;;;;5053547;28;20372;-75
2022/07/17 01:45:46;;;;;;;2.60;1.85;;;17.30;99.90;;;;;;5035870;28;20068;-75
2022/07/17 01:48:25;;;;;;;3.22;2.03;;;17.20;99.90;;;;;;5053564;28;20041;-75
2022/07/17 01:50:52;;;;;;;3.35;1.98;;;17.20;99.90;;;;;;5053429;28;20045;-75
2022/07/17 01:53:19;;;;;;;3.00;1.90;;;17.20;99.90;;;;;;5051724;28;20468;-75
2022/07/17 01:55:47;;;;;;;2.88;2.05;;;17.20;99.90;;;;;;5051384;28;20494;-75
2022/07/17 01:58:14;;;;;;;3.10;1.70;;;17.10;99.90;;;;;;5051368;28;20481;-75
2022/07/17 02:00:41;;;;;;;2.75;1.88;;;17.10;99.90;;;;;;5053083;28;20049;-75
2022/07/17 02:03:08;;;;;;;3.03;1.50;;;17.00;99.90;;;;;;5056662;28;20098;-75
2022/07/17 02:05:35;;;;;;;4.65;1.77;;;17.00;99.90;;;;;;5039065;28;20065;-75
2022/07/17 02:08:01;;;;;;;4.00;1.83;;;16.90;99.90;;;;;;5057139;28;20040;-75
2022/07/17 02:10:28;;;;;;;2.83;2.00;;;16.90;99.90;;;;;;5055096;28;20387;-75
2022/07/17 02:12:57;;;;;;;2.60;1.50;;;16.80;99.90;;;;;;5054983;28;20388;-75
2022/07/17 02:15:24;;;;;;;2.38;1.63;;;16.80;99.90;;;;;;5038724;28;20052;-75
2022/07/17 02:17:52;;;;;;;2.78;1.92;;;16.80;99.90;;;;;;5056454;28;20104;-75
2022/07/17 02:20:19;;;;;;;5.22;1.80;;;16.70;99.90;;;;;;5056068;28;20037;-75
2022/07/17 02:22:45;;;;;;;3.92;1.92;;;16.70;99.90;;;;;;5056021;28;20041;-75
2022/07/17 02:25:13;;;;;;;3.45;2.10;;;16.60;99.90;;;;;;5054784;28;20044;-76
2022/07/17 02:27:40;;;;;;;3.92;2.33;;;16.60;99.90;;;;;;5055105;28;20078;-75
2022/07/17 02:30:14;;;;;;;3.70;1.95;;;16.60;99.90;;;;;;5054868;28;20053;-75
2022/07/17 02:32:41;;;;;;;3.10;2.00;;;16.60;99.90;;;;;;5039217;28;20045;-75
2022/07/17 02:35:09;;;;;;;4.47;1.90;;;16.60;99.90;;;;;;5055719;28;20041;-75
2022/07/17 02:37:37;;;;;;;3.17;1.90;;;16.60;99.90;;;;;;5054938;28;20419;-75
2022/07/17 02:40:04;;;;;;;3.28;1.75;;;16.50;99.90;;;;;;5056149;28;20052;-75
2022/07/17 02:42:31;;;;;;;4.45;2.17;;;16.50;99.90;;;;;;5055645;28;20048;-75
2022/07/17 02:44:58;;;;;;;4.50;2.00;;;16.50;99.90;;;;;;5055647;28;20040;-75
2022/07/17 02:47:31;;;;;;;2.97;1.85;;;16.50;99.90;;;;;;5055397;28;20099;-75
2022/07/17 02:50:01;;;;;;;3.10;1.90;;;16.40;99.90;;;;;;5054570;28;20053;-75
2022/07/17 02:52:28;;;;;;;5.40;2.15;;;16.40;99.90;;;;;;5055736;28;20049;-75
2022/07/17 02:54:54;;;;;;;2.97;1.90;;;16.40;99.90;;;;;;5055419;28;20041;-76
2022/07/17 02:57:21;;;;;;;3.38;1.77;;;16.30;99.90;;;;;;5055687;28;20040;-75
2022/07/17 02:59:48;;;;;;;4.30;2.30;;;16.30;99.90;;;;;;5054143;28;20481;-75
2022/07/17 03:02:15;;;;;;;4.43;2.00;;;16.30;99.90;;;;;;5055592;28;20099;-76
2022/07/17 03:04:45;;;;;;;4.88;2.55;;;16.30;99.90;;;;;;5054677;28;20106;-76
2022/07/17 03:07:11;;;;;;;2.83;1.77;;;16.20;99.90;;;;;;5054828;28;20052;-75
2022/07/17 03:09:38;;;;;;;3.33;2.05;;;16.20;99.90;;;;;;5053949;28;20075;-75
2022/07/17 03:12:06;;;;;;;4.30;2.08;;;16.10;99.90;;;;;;5053877;28;20495;-74
2022/07/17 03:14:32;;;;;;;5.32;2.55;;;16.10;99.90;;;;;;5055322;28;20045;-74
2022/07/17 03:17:00;;;;;;;2.50;1.85;;;16.10;99.90;;;;;;5055986;28;20127;-75
2022/07/17 03:19:27;;;;;;;3.67;2.20;;;16.00;99.90;;;;;;5055808;28;20119;-75
2022/07/17 03:21:53;;;;;;;3.20;1.90;;;16.00;99.90;;;;;;5056064;28;20045;-75
2022/07/17 03:24:20;;;;;;;2.78;1.88;;;16.00;99.90;;;;;;5055165;28;20076;-75
2022/07/17 03:26:47;;;;;;;2.75;1.98;;;16.00;99.90;;;;;;5055814;28;20045;-75
2022/07/17 03:29:17;;;;;;;4.15;2.35;;;16.00;99.90;;;;;;5053450;28;20055;-75
2022/07/17 03:31:45;;;;;;;3.72;2.28;;;16.00;99.90;;;;;;5053817;28;20052;-75
2022/07/17 03:34:12;;;;;;;4.30;1.80;;;16.10;99.90;;;;;;5037416;28;20072;-75
2022/07/17 03:36:40;;;;;;;3.83;1.85;;;16.00;99.90;;;;;;5055746;28;20128;-75
2022/07/17 03:39:07;;;;;;;4.28;2.13;;;16.00;99.90;;;;;;5037304;28;20041;-75
2022/07/17 03:41:34;;;;;;;3.38;2.15;;;16.00;99.90;;;;;;5054427;28;20049;-75
2022/07/17 03:44:00;;;;;;;2.60;1.50;;;15.90;99.90;;;;;;5053915;28;20048;-75
2022/07/17 03:46:27;;;;;;;4.30;2.08;;;15.90;99.90;;;;;;5037626;28;20045;-75
2022/07/17 03:48:54;;;;;;;3.80;1.73;;;15.90;99.90;;;;;;5054473;28;20048;-75
2022/07/17 03:51:22;;;;;;;4.22;2.22;;;15.90;99.90;;;;;;5053236;28;20165;-75
2022/07/17 03:53:48;;;;;;;3.40;2.20;;;15.90;99.90;;;;;;5054129;28;20056;-75
2022/07/17 03:56:15;;;;;;;3.53;2.13;;;15.90;99.90;;;;;;5054259;28;20048;-76
2022/07/17 03:58:42;;;;;;;6.10;2.65;;;15.90;99.90;;;;;;5054245;28;20041;-75
2022/07/17 04:01:09;;;;;;;2.67;1.90;;;15.90;99.90;;;;;;5054488;28;20045;-75
2022/07/17 04:03:36;;;;;;;3.63;2.00;;;15.90;99.90;;;;;;5053244;28;20048;-75
2022/07/17 04:06:03;;;;;;;5.30;1.88;;;15.90;99.90;;;;;;5053232;28;20052;-75
2022/07/17 04:08:31;;;;;;;4.75;2.10;;;15.80;99.90;;;;;;5054112;28;20041;-75
2022/07/17 04:10:58;;;;;;;5.88;2.03;;;15.80;99.90;;;;;;5053866;28;20044;-75
2022/07/17 04:13:24;;;;;;;4.53;2.28;;;15.80;99.90;;;;;;5053477;28;20048;-75
2022/07/17 04:15:59;;;;;;;4.03;2.20;;;15.80;99.90;;;;;;5053785;28;20041;-75
2022/07/17 04:18:28;;;;;;;8.57;2.30;;;15.80;99.90;;;;;;5052764;28;20056;-75
2022/07/17 04:20:56;;;;;;;4.57;2.20;;;15.70;99.90;;;;;;5053707;28;20057;-75
2022/07/17 04:23:23;;;;;;;3.13;2.13;;;15.70;99.90;;;;;;5053330;28;20068;-75
2022/07/17 04:25:50;;;;;;;3.88;2.42;;;15.80;99.90;;;;;;5054126;28;20089;-75
2022/07/17 04:28:17;;;;;;;3.20;2.08;;;15.80;99.90;;;;;;5054023;28;20044;-75
2022/07/17 04:30:44;;;;;;;4.13;2.00;;;15.80;99.90;;;;;;5054719;28;20045;-75
2022/07/17 04:33:11;;;;;;;4.00;2.42;;;15.80;99.90;;;;;;5053576;28;20037;-75
2022/07/17 04:35:38;;;;;;;6.82;2.47;;;15.80;99.90;;;;;;5052294;28;20044;-75
2022/07/17 04:38:06;;;;;;;3.42;2.15;;;15.90;99.90;;;;;;5052231;28;20476;-76
2022/07/17 04:40:33;;;;;;;3.70;2.13;;;15.90;99.90;;;;;;5052296;28;20041;-75
2022/07/17 04:43:00;;;;;;;8.95;2.25;;;15.90;99.90;;;;;;5052362;28;20053;-76
2022/07/17 04:45:30;;;;;;;3.80;1.85;;;16.00;99.90;;;;;;5052562;28;20135;-76
2022/07/17 04:47:58;;;;;;;3.22;2.00;;;16.00;99.90;;;;;;5053428;28;20049;-76
2022/07/17 04:50:27;;;;;;;4.85;1.80;;;16.10;99.90;;;;;;5052435;28;20048;-76
2022/07/17 04:52:54;;;;;;;2.60;1.90;;;16.20;99.90;;;;;;5051859;28;20048;-76
2022/07/17 04:55:21;;;;;;;2.85;1.80;;;16.30;99.90;;;;;;5053382;28;20049;-76
2022/07/17 04:57:50;;;;;;;3.55;2.08;;;16.40;99.90;;;;;;5053116;28;20087;-76
2022/07/17 05:00:17;;;;;;;5.00;2.30;;;16.50;99.90;;;;;;5053511;28;20067;-76
2022/07/17 05:02:44;;;;;;;3.92;2.00;;;16.50;99.90;;;;;;5053541;28;20052;-77
2022/07/17 05:05:11;;;;;;;3.00;2.15;;;16.50;99.90;;;;;;5054102;28;20049;-77
2022/07/17 05:07:38;;;;;;;3.38;1.98;;;16.50;99.90;;;;;;5051956;28;20041;-76
2022/07/17 05:10:05;;;;;;;5.07;2.10;;;16.50;99.90;;;;;;5052702;28;20060;-76
2022/07/17 05:12:32;;;;;;;4.95;2.60;;;16.50;99.90;;;;;;5053332;28;20122;-77
2022/07/17 05:14:59;;;;;;;8.73;1.98;;;16.50;99.90;;;;;;5051834;28;20044;-76
2022/07/17 05:17:26;;;;;;;3.90;2.00;;;16.50;99.90;;;;;;5052152;28;20040;-76
2022/07/17 05:19:53;;;;;;;5.65;2.28;;;16.50;99.90;;;;;;5052112;28;20049;-77
2022/07/17 05:22:20;;;;;;;5.10;2.40;;;16.50;99.90;;;;;;5052974;28;20053;-76
2022/07/17 05:24:46;;;;;;;5.10;2.17;;;16.60;99.90;;;;;;5051740;28;20051;-77
2022/07/17 05:27:13;;;;;;;3.88;2.20;;;16.60;99.90;;;;;;5052006;28;20380;-76
2022/07/17 05:29:40;;;;;;;3.65;2.40;;;16.60;99.90;;;;;;5053179;28;20041;-76
2022/07/17 05:32:07;;;;;;;5.30;2.47;;;16.70;99.90;;;;;;5053556;28;20041;-76
2022/07/17 05:34:34;;;;;;;6.72;2.78;;;16.70;99.90;;;;;;5053604;28;20041;-76
2022/07/17 05:37:01;;;;;;;3.75;2.03;;;16.80;99.90;;;;;;5056867;28;20123;-76
2022/07/17 05:39:28;;;;;;;5.10;3.22;;;16.80;99.90;;;;;;5056410;28;20037;-76
2022/07/17 05:41:58;;;;;;;3.88;2.15;;;17.10;99.90;;;;;;5055985;28;20052;-76
2022/07/17 05:44:24;;;;;;;3.85;2.22;;;17.40;99.90;;;;;;5055758;28;20480;-76
2022/07/17 05:46:51;;;;;;;4.25;2.22;;;17.80;99.90;;;;;;5055094;28;20068;-76
2022/07/17 05:49:18;;;;;;;3.85;2.00;;;18.30;99.90;;;;;;5056029;28;20048;-77
2022/07/17 05:51:45;;;;;;;4.90;2.10;;;18.70;99.90;;;;;;5055733;28;20041;-76
2022/07/17 05:54:12;;;;;;;6.00;2.67;;;19.20;99.90;;;;;;5054832;28;20108;-76
2022/07/17 05:56:39;;;;;;;3.22;1.83;;;19.50;99.90;;;;;;5054823;28;20425;-76
2022/07/17 05:59:06;;;;;;;5.13;2.03;;;19.90;99.90;;;;;;5055319;28;20041;-76
2022/07/17 06:01:32;;;;;;;4.55;2.15;;;20.20;99.90;;;;;;5055458;28;20044;-76
2022/07/17 06:03:59;;;;;;;4.45;2.80;;;20.40;99.90;;;;;;5054272;28;20362;-77
2022/07/17 06:06:26;;;;;;;5.10;2.25;;;20.60;99.90;;;;;;5037902;28;20440;-77
2022/07/17 06:08:53;;;;;;;4.63;2.42;;;20.60;99.90;;;;;;5054952;28;20049;-77
2022/07/17 06:11:20;;;;;;;4.18;2.88;;;20.60;99.90;;;;;;5055425;28;20045;-77
2022/07/17 06:13:54;;;;;;;4.07;2.20;;;20.60;99.90;;;;;;5056172;28;20036;-77
2022/07/17 06:16:21;;;;;;;4.15;2.30;;;20.70;99.90;;;;;;5055224;28;20044;-77
2022/07/17 06:18:48;;;;;;;3.33;2.40;;;20.70;99.90;;;;;;5054001;28;20055;-77
2022/07/17 06:21:15;;;;;;;5.38;2.35;;;20.70;99.90;;;;;;5053673;28;20521;-77
2022/07/17 06:23:42;;;;;;;5.55;2.58;;;20.60;99.90;;;;;;5053637;28;20506;-78
2022/07/17 06:26:09;;;;;;;4.05;2.42;;;20.60;99.90;;;;;;5054817;28;20530;-77
2022/07/17 06:28:36;;;;;;;7.50;2.40;;;20.60;99.90;;;;;;5055074;28;20067;-76
2022/07/17 06:31:03;;;;;;;4.15;2.58;;;20.70;99.90;;;;;;5054747;28;20041;-76
2022/07/17 06:33:30;;;;;;;4.53;2.20;;;20.70;99.90;;;;;;5055755;28;20357;-76
2022/07/17 06:35:57;;;;;;;6.50;2.13;;;20.70;99.90;;;;;;5053592;28;20389;-76
2022/07/17 06:38:26;;;;;;;6.28;2.08;;;20.80;99.90;;;;;;5054567;28;20037;-75
2022/07/17 06:40:53;;;;;;;7.20;2.25;;;20.80;99.90;;;;;;5055891;28;20049;-76
2022/07/17 06:43:31;;;;;;;4.05;2.72;;;20.90;99.90;;;;;;5087285;27;1305024;-76
2022/07/17 06:45:58;;;;;;;3.25;1.98;;;21.10;99.90;;;;;;5108919;28;20055;-74
2022/07/17 06:48:25;;;;;;;3.70;2.10;;;21.20;99.90;;;;;;5076337;28;20135;-74
2022/07/17 06:50:52;;;;;;;4.13;2.03;;;21.20;99.90;;;;;;5110780;28;20047;-74
2022/07/17 06:53:19;;;;;;;2.97;2.22;;;21.20;99.90;;;;;;5110779;28;20065;-74
2022/07/17 06:55:46;;;;;;;4.60;2.50;;;21.30;99.90;;;;;;5110748;28;20048;-74
2022/07/17 06:58:13;;;;;;;2.90;2.03;;;21.40;99.90;;;;;;5093057;28;20472;-75
2022/07/17 07:00:40;;;;;;;3.38;1.80;;;21.40;99.90;;;;;;5110576;28;20051;-75
2022/07/17 07:03:07;;;;;;;4.25;2.78;;;21.50;99.90;;;;;;5111267;28;20051;-75
2022/07/17 07:05:34;;;;;;;6.03;2.50;;;21.60;99.90;;;;;;5110545;28;20395;-75
2022/07/17 07:08:04;;;;;;;9.38;2.70;;;21.70;99.90;;;;;;5110928;28;20044;-75
2022/07/17 07:10:31;;;;;;;5.43;2.97;;;21.80;99.90;;;;;;5092475;28;20479;-74
2022/07/17 07:12:58;;;;;;;5.63;2.55;;;21.90;99.90;;;;;;5111502;28;20043;-74
2022/07/17 07:15:25;;;;;;;5.60;2.40;;;22.00;99.90;;;;;;5092409;28;20046;-74
2022/07/17 07:17:52;;;;;;;3.38;1.52;;;22.10;99.90;;;;;;5093095;28;20431;-74
2022/07/17 07:20:19;;;;;;;4.40;2.20;;;22.20;99.90;;;;;;5110526;28;20044;-75
2022/07/17 07:22:46;;;;;;;4.32;1.90;;;22.30;99.90;;;;;;5092137;28;20494;-73
2022/07/17 07:25:12;;;;;;;9.88;8.07;;;22.50;99.90;;;;;;5092500;28;20438;-63
2022/07/17 07:27:39;;;;;;;4.10;2.67;;;22.60;99.90;;;;;;5075687;28;20040;-74
2022/07/17 07:30:09;;;;;;;3.58;2.10;;;22.70;99.90;;;;;;5109965;28;20044;-74
2022/07/17 07:32:40;;;;;;;6.97;6.28;;;22.90;99.90;;;;;;5093055;28;20082;-74
2022/07/17 07:35:08;;;;;;;15.85;11.50;;;22.90;99.90;;;;;;5110552;28;20172;-74
2022/07/17 07:37:35;;;;;;;7.18;3.95;;;23.00;99.90;;;;;;5110274;28;20043;-79
2022/07/17 07:40:02;;;;;;;3.78;2.58;;;23.10;99.40;;;;;;5110549;28;20046;-79
2022/07/17 07:42:29;;;;;;;4.05;2.10;;;23.20;98.70;;;;;;5092098;28;20101;-79
2022/07/17 07:44:56;;;;;;;4.78;2.65;;;23.30;97.60;;;;;;5109963;28;20044;-79
2022/07/17 07:47:23;;;;;;;5.32;2.00;;;23.50;95.70;;;;;;5091869;28;20039;-79
2022/07/17 07:49:50;;;;;;;3.97;1.92;;;23.50;95.20;;;;;;5109829;28;20494;-78
2022/07/17 07:52:17;;;;;;;3.30;1.70;;;23.60;95.50;;;;;;5110198;28;20051;-79
2022/07/17 07:54:44;;;;;;;4.43;2.00;;;23.60;95.10;;;;;;5079965;28;20044;-79
2022/07/17 07:57:11;;;;;;;4.47;2.30;;;23.70;94.70;;;;;;5078931;28;20047;-79
2022/07/17 07:59:38;;;;;;;6.07;2.05;;;23.90;92.50;;;;;;5096282;28;20044;-80
2022/07/17 08:02:05;;;;;;;2.47;1.45;;;23.90;92.40;;;;;;5077952;28;20160;-79
2022/07/17 08:04:32;;;;;;;2.92;1.70;;;24.00;92.20;;;;;;5095946;28;20122;-80
2022/07/17 08:06:59;;;;;;;4.28;2.75;;;24.10;92.00;;;;;;5096857;28;20055;-80
2022/07/17 08:09:26;;;;;;;4.55;2.83;;;24.30;91.30;;;;;;5077762;28;20044;-80
2022/07/17 08:11:53;;;;;;;2.85;1.60;;;24.40;90.60;;;;;;5077794;28;20044;-79
2022/07/17 08:14:20;;;;;;;4.57;2.40;;;24.40;90.30;;;;;;5077992;28;20070;-79
2022/07/17 08:16:47;;;;;;;4.15;1.95;;;24.60;89.50;;;;;;5096336;28;20059;-78
2022/07/17 08:19:14;;;;;;;3.95;1.98;;;24.70;90.10;;;;;;5078191;28;20364;-79
2022/07/17 08:21:41;;;;;;;2.45;1.70;;;24.80;89.70;;;;;;5095567;28;20051;-79
2022/07/17 08:24:08;;;;;;;4.20;1.60;;;24.90;88.10;;;;;;5095704;28;20471;-79
2022/07/17 08:26:35;;;;;;;3.75;1.80;;;25.00;88.00;;;;;;5095396;28;20047;-79
2022/07/17 08:29:02;;;;;;;4.07;1.90;;;25.00;84.90;;;;;;5095780;28;20040;-80
2022/07/17 08:31:29;;;;;;;4.70;1.88;;;25.10;86.00;;;;;;5077938;28;20040;-79
2022/07/17 08:33:56;;;;;;;3.30;1.83;;;25.20;85.50;;;;;;5096122;28;20044;-80
2022/07/17 08:36:22;;;;;;;3.75;1.80;;;25.30;84.30;;;;;;5077642;28;20040;-79
2022/07/17 08:38:49;;;;;;;3.17;2.10;;;25.40;82.10;;;;;;5096266;28;20368;-79
2022/07/17 08:41:17;;;;;;;3.08;1.92;;;25.50;81.30;;;;;;5095321;28;20047;-80
2022/07/17 08:43:44;;;;;;;3.13;1.80;;;25.50;81.80;;;;;;5077367;28;20075;-79
2022/07/17 08:46:11;;;;;;;3.28;2.00;;;25.50;80.40;;;;;;5095107;28;20036;-80
2022/07/17 08:48:40;;;;;;;2.67;1.77;;;25.60;80.40;;;;;;5077226;28;20044;-80
2022/07/17 08:51:08;;;;;;;2.53;1.70;;;25.70;80.60;;;;;;5060972;28;20048;-79
2022/07/17 08:53:35;;;;;;;4.37;1.90;;;25.70;79.00;;;;;;5061663;28;20036;-79
2022/07/17 08:56:02;;;;;;;6.10;2.00;;;25.70;79.40;;;;;;5076998;28;20451;-79
2022/07/17 08:58:29;;;;;;;3.47;2.25;;;25.70;78.70;;;;;;5094957;28;20081;-79
2022/07/17 09:00:56;;;;;;;4.07;1.90;;;25.70;79.30;;;;;;5094728;28;20040;-78
2022/07/17 09:03:23;;;;;;;2.33;1.90;;;25.80;78.70;;;;;;5095447;28;20044;-79
2022/07/17 09:05:51;;;;;;;3.22;1.90;;;25.90;79.40;;;;;;5094148;28;20135;-79
2022/07/17 09:08:20;;;;;;;11.15;8.90;;;25.90;78.00;;;;;;5076787;28;20093;-79
2022/07/17 09:10:48;;;;;;;64.72;59.05;;;25.90;77.10;;;;;;5078394;28;20043;-66
2022/07/17 09:13:22;;;;;;;9.50;8.60;;;26.00;77.20;;;;;;5077526;28;20044;-64
2022/07/17 09:15:50;;;;;;;4.35;3.60;;;25.90;75.80;;;;;;5077769;28;20493;-68
2022/07/17 09:18:18;;;;;;;3.65;2.53;;;25.70;76.10;;;;;;5060092;28;20055;-69
2022/07/17 09:20:47;;;;;;;4.03;2.08;;;25.70;77.40;;;;;;5094232;28;20471;-67
2022/07/17 09:23:17;;;;;;;5.00;2.17;;;25.70;77.10;;;;;;5076648;28;20043;-68
2022/07/17 09:25:46;;;;;;;2.80;1.65;;;25.70;76.90;;;;;;5060532;28;20451;-67
2022/07/17 09:28:14;;;;;;;;;;;25.70;77.10;;;;;;5043887;28;20055;-71
2022/07/17 09:30:45;;;;;;;5.63;2.85;;;25.70;76.70;;;;;;5094137;28;19915;-69
2022/07/17 09:33:14;;;;;;;11.63;6.43;;;25.70;78.70;;;;;;5077323;28;20044;-66
2022/07/17 09:35:48;;;;;;;;;;;25.80;77.90;;;;;;5094794;28;20036;-70
2022/07/17 09:38:37;;;;;;;22.98;20.65;;;25.90;76.80;;;;;;5076366;28;19916;-69
2022/07/17 09:41:15;;;;;;;13.10;9.85;;;26.00;77.00;;;;;;5094819;28;20039;-69
2022/07/17 09:43:47;;;;;;;8.57;4.63;;;26.00;81.30;;;;;;5094764;28;20040;-69
2022/07/17 09:46:31;;;;;;;3.00;2.38;;;26.10;79.00;;;;;;5060507;28;20272;-69
2022/07/17 09:49:03;;;;;;;4.72;2.97;;;26.10;78.00;;;;;;5060387;28;20380;-70
2022/07/17 09:51:38;;;;;;;4.32;2.33;;;26.10;77.90;;;;;;5076474;28;20450;-72
2022/07/17 09:54:07;;;;;;;2.78;2.00;;;26.10;78.10;;;;;;5076463;28;20048;-69
2022/07/17 09:56:35;;;;;;;7.97;5.60;;;26.10;77.80;;;;;;5093682;28;20048;-70
2022/07/17 09:59:05;;;;;;;3.60;2.25;;;26.20;78.10;;;;;;5093637;28;20448;-69
2022/07/17 10:01:32;;;;;;;;;;;26.20;77.30;;;;;;5094876;28;20131;-70
2022/07/17 10:04:01;;;;;;;4.72;1.95;;;26.10;76.90;;;;;;5076763;28;20247;-68
2022/07/17 10:06:28;;;;;;;21.27;19.30;;;26.10;77.30;;;;;;5093872;28;20392;-62
2022/07/17 10:08:55;;;;;;;4.78;3.58;;;26.20;77.20;;;;;;5094193;28;20040;-69
2022/07/17 10:11:34;;;;;;;4.15;2.33;;;26.30;75.80;;;;;;5075867;28;20078;-69
2022/07/17 10:14:10;;;;;;;5.55;2.45;;;26.40;76.50;;;;;;5075542;28;20044;-69
2022/07/17 10:16:40;;;;;;;4.53;1.80;;;26.40;75.80;;;;;;5061222;28;20050;-69
2022/07/17 10:19:21;;;;;;;2.83;2.13;;;26.50;75.90;;;;;;5076567;28;20044;-70
2022/07/17 10:21:54;;;;;;;4.25;2.78;;;26.60;75.10;;;;;;5075374;28;20062;-69
2022/07/17 10:24:22;;;;;;;6.03;2.45;;;26.70;75.60;;;;;;5075439;28;20109;-69
2022/07/17 10:26:49;;;;;;;4.68;2.65;;;26.70;73.70;;;;;;5059150;28;20044;-70
2022/07/17 10:29:35;;;;;;;3.55;2.40;;;26.80;73.00;;;;;;5093299;28;20040;-69
2022/07/17 10:32:08;;;;;;;3.33;2.22;;;26.80;73.50;;;;;;5076117;28;20126;-69
2022/07/17 10:35:13;;;;;;;4.60;2.03;;;26.90;72.30;;;;;;5075206;28;20509;-69
2022/07/17 10:37:49;;;;;;;2.83;2.08;;;26.90;71.30;;;;;;4991500;28;20038;-69
2022/07/17 10:40:23;;;;;;;2.85;2.15;;;26.90;70.10;;;;;;5062008;28;20044;-69
2022/07/17 10:43:01;;;;;;;3.85;2.63;;;27.00;69.80;;;;;;5092652;28;20048;-69
2022/07/17 10:45:35;;;;;;;2.80;2.03;;;27.10;70.10;;;;;;5059294;28;20071;-68
2022/07/17 10:48:10;;;;;;;3.65;2.50;;;27.20;70.40;;;;;;5094111;28;20044;-68
2022/07/17 10:50:45;;;;;;;73.05;28.88;;;27.30;71.40;;;;;;5075924;28;20048;-68
2022/07/17 10:53:16;;;;;;;69.50;24.70;;;27.40;71.00;;;;;;5059429;28;20066;-69
2022/07/17 10:55:57;;;;;;;14.18;5.75;;;27.60;71.70;;;;;;5092975;28;20086;-69
2022/07/17 10:58:28;;;;;;;8.75;3.80;;;27.70;69.70;;;;;;5092981;28;20047;-68
2022/07/17 11:01:02;;;;;;;3.40;2.75;;;27.70;69.20;;;;;;5075052;28;20040;-68
2022/07/17 11:03:36;;;;;;;3.53;2.03;;;27.70;67.40;;;;;;5093810;28;20043;-68
2022/07/17 11:06:11;;;;;;;3.70;2.42;;;27.80;68.10;;;;;;5093987;28;20059;-70
2022/07/17 11:08:48;;;;;;;6.30;2.15;;;27.90;68.30;;;;;;5042217;28;20047;-76
2022/07/17 11:11:16;;;;;;;4.68;3.75;;;28.00;67.00;;;;;;5076205;28;20051;-70
2022/07/17 11:13:53;;;;;;;3.67;3.10;;;28.00;68.40;;;;;;5077647;28;20050;-67
2022/07/17 11:16:30;;;;;;;3.63;2.60;;;28.00;68.70;;;;;;5094395;28;20044;-73
2022/07/17 11:18:58;;;;;;;3.50;2.30;;;28.10;66.80;;;;;;5093616;28;20460;-72
2022/07/17 11:21:26;;;;;;;3.80;2.57;;;28.20;69.50;;;;;;5093063;28;20105;-74
2022/07/17 11:23:54;;;;;;;5.75;2.15;;;28.20;70.00;;;;;;5074701;28;20078;-68
2022/07/17 11:26:21;;;;;;;2.75;2.00;;;28.30;68.80;;;;;;5075077;28;20036;-67
2022/07/17 11:28:48;;;;;;;2.97;2.17;;;28.40;67.80;;;;;;5093923;28;20044;-67
2022/07/17 11:31:21;;;;;;;2.42;1.90;;;28.40;66.50;;;;;;5097375;28;20040;-67
2022/07/17 11:33:55;;;;;;;3.33;2.30;;;28.30;66.80;;;;;;5078438;28;20055;-67
2022/07/17 11:36:26;;;;;;;3.75;1.77;;;28.40;66.20;;;;;;5097030;28;20466;-67
2022/07/17 11:38:54;;;;;;;4.07;2.28;;;28.50;67.30;;;;;;5079078;28;20093;-67
2022/07/17 11:41:21;;;;;;;;;;;28.70;66.20;;;;;;5079352;28;20074;-67
2022/07/17 11:43:48;;;;;;;9.73;8.65;;;28.70;65.50;;;;;;5078503;28;19992;-66
2022/07/17 11:46:16;;;;;;;4.32;3.35;;;28.80;66.00;;;;;;5078239;28;20494;-67
2022/07/17 11:48:44;;;;;;;3.80;2.58;;;28.90;65.00;;;;;;5062494;28;20046;-68
2022/07/17 11:51:11;;;;;;;4.50;2.30;;;29.00;64.90;;;;;;5079056;28;20040;-68
2022/07/17 11:53:38;;;;;;;3.63;2.72;;;29.10;65.40;;;;;;5078380;28;20079;-67
2022/07/17 11:56:06;;;;;;;3.20;2.42;;;29.10;64.70;;;;;;5061639;28;20097;-67
2022/07/17 11:58:44;;;;;;;3.85;2.45;;;29.20;64.00;;;;;;5061895;28;20123;-67
2022/07/17 12:01:11;;;;;;;5.15;2.58;;;29.20;63.00;;;;;;5061468;28;20040;-67
2022/07/17 12:03:38;;;;;;;4.10;2.67;;;29.30;63.50;;;;;;5078133;28;20086;-68
2022/07/17 12:06:05;;;;;;;4.72;2.80;;;29.20;62.90;;;;;;5078476;28;20047;-68
2022/07/17 12:08:33;;;;;;;4.82;2.58;;;29.20;63.10;;;;;;5077713;28;20063;-68
2022/07/17 12:11:01;;;;;;;3.55;2.33;;;29.10;62.90;;;;;;5078691;28;20046;-68
2022/07/17 12:13:39;;;;;;;6.22;2.50;;;29.20;63.60;;;;;;5064093;28;20040;-68
2022/07/17 12:16:29;;;;;;;3.40;2.25;;;29.40;62.80;;;;;;5077760;28;20044;-67
2022/07/17 12:19:00;;;;;;;3.97;2.58;;;29.50;61.50;;;;;;5061815;28;20084;-67
2022/07/17 12:21:27;;;;;;;2.92;2.25;;;29.60;61.50;;;;;;5095587;28;20051;-67
2022/07/17 12:24:00;;;;;;;3.20;2.13;;;29.70;62.20;;;;;;5077890;28;20047;-67
2022/07/17 12:26:27;;;;;;;6.65;2.40;;;29.70;61.40;;;;;;5095744;28;20426;-66
2022/07/17 12:28:54;;;;;;;5.70;3.22;;;29.70;61.60;;;;;;5096442;28;20048;-65
2022/07/17 12:31:27;;;;;;;7.85;2.55;;;29.70;60.50;;;;;;5062984;28;20044;-65
2022/07/17 12:33:54;;;;;;;8.80;3.33;;;29.70;60.90;;;;;;5095316;28;20136;-66
2022/07/17 12:36:22;;;;;;;4.53;2.90;;;29.70;60.80;;;;;;5077402;28;20040;-67
2022/07/17 12:38:49;;;;;;;4.68;2.40;;;29.70;60.10;;;;;;5095391;28;20044;-66
2022/07/17 12:41:16;;;;;;;5.70;2.50;;;29.70;60.20;;;;;;5077521;28;20043;-68
2022/07/17 12:43:43;;;;;;;5.47;2.40;;;29.70;60.10;;;;;;5060706;28;20406;-68
2022/07/17 12:46:10;;;;;;;3.10;2.50;;;29.60;59.80;;;;;;5077145;28;20054;-65
2022/07/17 12:48:43;;;;;;;4.78;2.50;;;29.70;60.50;;;;;;5096118;28;20076;-66
2022/07/17 12:51:12;;;;;;;5.15;2.88;;;29.70;59.80;;;;;;5094982;28;20332;-66
2022/07/17 12:53:40;;;;;;;3.15;2.53;;;29.80;60.00;;;;;;5094970;28;20047;-65